createdAt,value
2019-01-23T00:01:33.334Z,6.5
2019-01-23T00:06:38.331Z,6.7
2019-01-23T00:11:44.133Z,6.3
2019-01-23T00:16:49.844Z,6.5
2019-01-23T00:21:54.949Z,6.3
2019-01-23T00:27:00.023Z,6.3
2019-01-23T00:32:05.215Z,5.7
2019-01-23T00:37:10.282Z,6.4
2019-01-23T00:42:15.319Z,6.2
2019-01-23T00:47:20.464Z,6.3
2019-01-23T00:52:25.642Z,6.3
2019-01-23T00:57:30.807Z,6
2019-01-23T01:02:35.872Z,5.9
2019-01-23T01:07:40.960Z,5.8
2019-01-23T01:12:46.312Z,6
2019-01-23T01:17:51.329Z,6.1
2019-01-23T01:22:55.707Z,6.2
2019-01-23T01:28:01.401Z,6.1
2019-01-23T01:33:06.453Z,6
2019-01-23T01:38:11.768Z,5.6
2019-01-23T01:43:17.390Z,5.8
2019-01-23T01:48:22.299Z,5.8
2019-01-23T01:53:27.485Z,5.6
2019-01-23T01:58:33.719Z,5.8
2019-01-23T02:03:39.599Z,5.9
2019-01-23T02:08:44.779Z,5.4
2019-01-23T02:13:50.105Z,5.8
2019-01-23T02:18:55.840Z,5.8
2019-01-23T02:24:01.332Z,5.8
2019-01-23T02:29:10.487Z,5.9
2019-01-23T02:34:06.638Z,5.9
2019-01-23T02:39:10.461Z,5.5
2019-01-23T02:44:16.523Z,5.7
2019-01-23T02:49:21.643Z,5.6
2019-01-23T02:54:27.469Z,5.5
2019-01-23T02:59:33.021Z,5.8
2019-01-23T03:04:38.288Z,5.7
2019-01-23T03:09:43.874Z,5.5
2019-01-23T03:14:46.843Z,5.6
2019-01-23T03:19:52.130Z,5.5
2019-01-23T03:24:57.489Z,6
2019-01-23T03:30:02.667Z,5.8
2019-01-23T03:35:08.518Z,5.8
2019-01-23T03:40:14.193Z,5.7
2019-01-23T03:45:19.635Z,5.6
2019-01-23T03:50:25.218Z,5.5
2019-01-23T03:55:31.195Z,5.3
2019-01-23T04:00:36.508Z,5.2
2019-01-23T04:05:42.591Z,5.4
2019-01-23T04:10:48.322Z,5.4
2019-01-23T04:15:53.572Z,5.3
2019-01-23T04:20:59.546Z,5.2
2019-01-23T04:26:05.270Z,5.3
2019-01-23T04:31:10.706Z,5.3
2019-01-23T04:36:16.098Z,5
2019-01-23T04:41:21.607Z,5.1
2019-01-23T04:46:26.104Z,5.3
2019-01-23T04:51:32.064Z,5.1
2019-01-23T04:56:37.694Z,5.1
2019-01-23T05:01:43.412Z,5
2019-01-23T05:06:48.757Z,4.9
2019-01-23T05:11:54.007Z,4.8
2019-01-23T05:16:59.484Z,4.5
2019-01-23T05:22:05.210Z,4.8
2019-01-23T05:27:11.086Z,4.4
2019-01-23T05:32:16.758Z,4.2
2019-01-23T05:37:22.748Z,4.6
2019-01-23T05:42:28.275Z,4.4
2019-01-23T05:47:34.397Z,4.5
2019-01-23T05:52:40.346Z,5
2019-01-23T05:57:44.796Z,4.7
2019-01-23T06:02:49.239Z,4.6
2019-01-23T06:07:54.213Z,5.9
2019-01-23T06:12:57.821Z,5.6
2019-01-23T06:18:03.152Z,5.8
2019-01-23T06:23:08.256Z,5.8
2019-01-23T06:28:13.690Z,5.3
2019-01-23T06:33:19.079Z,5.3
2019-01-23T06:38:24.924Z,5.5
2019-01-23T06:43:30.279Z,5.3
2019-01-23T06:48:35.715Z,5.8
2019-01-23T06:53:41.324Z,5.6
2019-01-23T06:58:47.195Z,5.4
2019-01-23T07:03:52.338Z,5.6
2019-01-23T07:08:58.028Z,5.1
2019-01-23T07:14:03.636Z,5.3
2019-01-23T07:19:08.905Z,5.6
2019-01-23T07:24:14.428Z,5.4
2019-01-23T07:29:20.009Z,5.6
2019-01-23T07:34:25.746Z,5.2
2019-01-23T07:39:33.568Z,5.1
2019-01-23T07:44:39.083Z,5.6
2019-01-23T07:49:45.144Z,4.8
2019-01-23T07:54:50.266Z,5.2
2019-01-23T07:59:55.861Z,5
2019-01-23T08:05:01.020Z,4.7
2019-01-23T08:10:06.897Z,4.4
2019-01-23T08:15:12.533Z,5.1
2019-01-23T08:20:18.305Z,5.5
2019-01-23T08:25:25.441Z,5.9
2019-01-23T08:30:38.322Z,6.2
2019-01-23T08:35:35.716Z,5.6
2019-01-23T08:40:41.063Z,5.2
2019-01-23T08:45:47.502Z,5.1
2019-01-23T08:50:53.426Z,5.1
2019-01-23T08:55:58.619Z,4.8
2019-01-23T09:01:04.565Z,4.6
2019-01-23T09:06:10.135Z,3.6
2019-01-23T09:11:15.095Z,3.7
2019-01-23T09:16:20.521Z,3.9
2019-01-23T09:21:25.711Z,3.2
2019-01-23T09:26:30.974Z,3.4
2019-01-23T09:31:35.988Z,3.2
2019-01-23T09:36:41.687Z,2.9
2019-01-23T09:41:46.732Z,3
2019-01-23T09:46:52.449Z,2.5
2019-01-23T09:51:56.018Z,2.8
2019-01-23T09:57:01.021Z,2.4
2019-01-23T10:02:06.807Z,2.5
2019-01-23T10:07:11.829Z,2.9
2019-01-23T10:12:18.046Z,2.3
2019-01-23T10:17:23.173Z,2.2
2019-01-23T10:22:30.968Z,2.3
2019-01-23T10:27:36.635Z,2.2
2019-01-23T10:32:44.738Z,2.2
2019-01-23T10:37:49.771Z,2.2
2019-01-23T10:42:56.088Z,2.2
2019-01-23T10:48:01.165Z,2.1
2019-01-23T10:53:10.840Z,2.2
2019-01-23T10:58:16.151Z,2.4
2019-01-23T11:03:21.338Z,2.7
2019-01-23T11:08:27.683Z,2.7
2019-01-23T11:13:33.805Z,2.8
2019-01-23T11:18:39.320Z,2.6
2019-01-23T11:23:42.953Z,2.8
2019-01-23T11:28:48.993Z,3.2
2019-01-23T11:33:54.941Z,3.3
2019-01-23T11:38:59.966Z,2.8
2019-01-23T11:44:05.507Z,3.4
2019-01-23T11:49:11.482Z,2.8
2019-01-23T11:54:16.704Z,3.7
2019-01-23T11:59:23.239Z,5.1
2019-01-23T12:04:29.262Z,5.9
2019-01-23T12:09:34.606Z,6.1
2019-01-23T12:14:39.996Z,5.8
2019-01-23T12:19:43.902Z,5.9
2019-01-23T12:24:49.807Z,5
2019-01-23T12:29:55.774Z,4.4
2019-01-23T12:35:01.356Z,5.5
2019-01-23T12:40:09.679Z,4.8
2019-01-23T12:45:17.084Z,5.1
2019-01-23T12:50:21.337Z,5.1
2019-01-23T12:55:26.605Z,4.4
2019-01-23T13:00:31.852Z,4.8
2019-01-23T13:05:37.315Z,4.5
2019-01-23T13:10:43.169Z,4.7
2019-01-23T13:15:50.268Z,4.5
2019-01-23T13:20:53.744Z,4.5
2019-01-23T13:25:59.050Z,4.5
2019-01-23T13:31:05.037Z,4.5
2019-01-23T13:36:11.152Z,5.1
2019-01-23T13:41:16.274Z,5.1
2019-01-23T13:46:21.722Z,5.3
2019-01-23T13:51:27.626Z,5.2
2019-01-23T13:56:33.626Z,5.3
2019-01-23T14:01:39.609Z,5.2
2019-01-23T14:06:46.666Z,5.5
2019-01-23T14:11:51.885Z,5.4
2019-01-23T14:16:57.689Z,5.4
2019-01-23T14:22:02.650Z,5.6
2019-01-23T14:27:09.701Z,5.6
2019-01-23T14:32:19.136Z,5.5
2019-01-23T14:37:24.556Z,5.6
2019-01-23T14:42:30.572Z,5.8
2019-01-23T14:47:36.523Z,5.8
2019-01-23T14:52:43.250Z,5.3
2019-01-23T14:57:49.679Z,5.1
2019-01-23T15:02:54.904Z,5.9
2019-01-23T15:08:03.810Z,5.6
2019-01-23T15:13:04.246Z,6.1
2019-01-23T15:18:10.226Z,5.7
2019-01-23T15:23:16.385Z,5.6
2019-01-23T15:28:21.476Z,5.4
2019-01-23T15:33:26.664Z,5.8
2019-01-23T15:38:32.674Z,5.5
2019-01-23T15:43:37.754Z,7.1
2019-01-23T15:48:43.757Z,6.6
2019-01-23T15:53:49.918Z,6.2
2019-01-23T15:58:55.893Z,10.9
2019-01-23T16:04:00.029Z,8.6
2019-01-23T16:09:05.613Z,7.2
2019-01-23T16:14:09.746Z,7.4
2019-01-23T16:19:15.485Z,7.4
2019-01-23T16:24:21.133Z,6.4
2019-01-23T16:29:26.252Z,7.7
2019-01-23T16:34:31.358Z,7
2019-01-23T16:39:37.544Z,6.7
2019-01-23T16:44:43.105Z,5.7
2019-01-23T16:49:49.950Z,5.2
2019-01-23T16:54:54.316Z,5.6
2019-01-23T16:59:59.929Z,5.3
2019-01-23T17:05:05.302Z,4.8
2019-01-23T17:10:11.526Z,5.4
2019-01-23T17:15:18.006Z,5.5
2019-01-23T17:20:21.899Z,6.1
2019-01-23T17:25:27.029Z,6
2019-01-23T17:30:32.394Z,8.4
2019-01-23T17:35:37.963Z,6.7
2019-01-23T17:40:43.760Z,7.3
2019-01-23T17:45:48.996Z,13.4
2019-01-23T17:50:54.963Z,17.5
2019-01-23T17:56:01.970Z,14.5
2019-01-23T18:01:09.212Z,13
2019-01-23T18:06:09.141Z,12.5
2019-01-23T18:11:14.274Z,13.2
2019-01-23T18:16:19.986Z,13.4
2019-01-23T18:21:26.298Z,13.1
2019-01-23T18:26:38.503Z,12.9
2019-01-23T18:31:44.168Z,54.9
2019-01-23T18:36:46.264Z,54.9
2019-01-23T18:41:52.727Z,48.1
2019-01-23T18:46:58.664Z,42.2
2019-01-23T18:52:07.281Z,40
2019-01-23T18:57:15.523Z,34.6
2019-01-23T19:02:21.257Z,32.1
2019-01-23T19:07:28.860Z,30
2019-01-23T19:12:34.173Z,30.7
2019-01-23T19:17:40.064Z,28.5
2019-01-23T19:22:45.749Z,23.3
2019-01-23T19:27:51.667Z,18.9
2019-01-23T19:32:57.023Z,17.2
2019-01-23T19:38:02.757Z,13.7
2019-01-23T19:43:08.363Z,12.1
2019-01-23T19:48:14.144Z,10
2019-01-23T19:53:20.496Z,9.4
2019-01-23T19:58:26.184Z,8
2019-01-23T20:03:31.716Z,6.8
2019-01-23T20:08:37.488Z,6.4
2019-01-23T20:13:43.609Z,6.2
2019-01-23T20:18:48.726Z,5.8
2019-01-23T20:23:54.351Z,5.1
2019-01-23T20:29:00.224Z,5
2019-01-23T20:34:05.483Z,4.8
2019-01-23T20:39:15.818Z,4.6
2019-01-23T20:44:11.128Z,5.3
2019-01-23T20:49:16.249Z,4.8
2019-01-23T20:54:21.061Z,5.3
2019-01-23T20:59:28.296Z,4.6
2019-01-23T21:04:34.485Z,4.5
2019-01-23T21:09:39.968Z,4.2
2019-01-23T21:14:46.232Z,5.6
2019-01-23T21:19:52.246Z,5.1
2019-01-23T21:24:57.496Z,4.4
2019-01-23T21:30:02.535Z,4.6
2019-01-23T21:35:08.205Z,6.3
2019-01-23T21:40:13.814Z,4.9
2019-01-23T21:45:19.227Z,4.5
2019-01-23T21:50:24.886Z,5.1
2019-01-23T21:55:30.861Z,6.1
2019-01-23T22:00:36.210Z,6.2
2019-01-23T22:05:42.018Z,5.9
2019-01-23T22:10:47.986Z,6.6
2019-01-23T22:15:53.229Z,6
2019-01-23T22:20:58.807Z,6.6
2019-01-23T22:26:03.892Z,6.3
2019-01-23T22:31:08.806Z,6.3
2019-01-23T22:36:14.371Z,6.3
2019-01-23T22:41:20.348Z,5.6
2019-01-23T22:46:26.372Z,5.3
2019-01-23T22:51:31.744Z,5.4
2019-01-23T22:56:37.821Z,5.5
2019-01-23T23:01:42.951Z,5.3
2019-01-23T23:06:48.119Z,5.3
2019-01-23T23:11:53.632Z,4.9
2019-01-23T23:16:59.359Z,5.2
2019-01-23T23:22:05.093Z,4.8
2019-01-23T23:27:10.997Z,5.3
2019-01-23T23:32:16.582Z,5.2
2019-01-23T23:37:22.316Z,4.6
2019-01-23T23:42:27.504Z,4.9
2019-01-23T23:47:32.827Z,5.3
2019-01-23T23:52:38.343Z,5.5
2019-01-23T23:57:43.730Z,5.7
